createdAt,value
2022-09-28T00:03:55.216Z,3.97
2022-09-28T00:09:02.850Z,4.18
2022-09-28T00:14:07.652Z,4.28
2022-09-28T00:19:14.225Z,3.50
2022-09-28T00:24:24.008Z,3.67
2022-09-28T00:29:32.647Z,3.25
2022-09-28T00:34:40.861Z,3.75
2022-09-28T00:39:53.483Z,4.00
2022-09-28T00:45:01.758Z,3.90
2022-09-28T00:50:18.421Z,3.70
2022-09-28T00:55:34.120Z,3.80
2022-09-28T01:00:40.735Z,4.63
2022-09-28T01:05:49.850Z,3.88
2022-09-28T01:10:56.924Z,4.20
2022-09-28T01:16:13.008Z,5.93
2022-09-28T01:21:20.978Z,4.68
2022-09-28T01:26:48.660Z,3.40
2022-09-28T01:31:57.829Z,4.20
2022-09-28T01:37:08.646Z,4.38
2022-09-28T01:42:22.808Z,4.60
2022-09-28T01:47:28.774Z,4.30
2022-09-28T01:52:41.108Z,3.97
2022-09-28T01:57:51.751Z,4.40
2022-09-28T02:03:01.863Z,12.57
2022-09-28T02:08:21.071Z,6.88
2022-09-28T02:13:34.088Z,12.13
2022-09-28T02:18:38.258Z,8.65
2022-09-28T02:23:52.369Z,12.38
2022-09-28T02:28:58.377Z,9.82
2022-09-28T02:34:02.671Z,6.13
2022-09-28T02:39:15.254Z,4.72
2022-09-28T02:44:40.060Z,5.10
2022-09-28T02:49:50.935Z,4.45
2022-09-28T02:55:09.411Z,3.85
2022-09-28T03:00:19.018Z,4.63
2022-09-28T03:05:36.426Z,4.22
2022-09-28T03:10:48.478Z,4.82
2022-09-28T03:15:54.138Z,4.30
2022-09-28T03:20:58.155Z,5.00
2022-09-28T03:26:02.174Z,3.88
2022-09-28T03:31:07.797Z,4.50
2022-09-28T03:36:11.691Z,4.03
2022-09-28T03:41:15.998Z,4.75
2022-09-28T03:46:22.093Z,4.53
2022-09-28T03:51:29.628Z,3.67
2022-09-28T03:56:33.395Z,4.10
2022-09-28T04:01:39.139Z,4.45
2022-09-28T04:06:44.520Z,5.03
2022-09-28T04:12:03.291Z,3.92
2022-09-28T04:17:09.543Z,4.07
2022-09-28T04:22:14.370Z,3.58
2022-09-28T04:27:35.977Z,3.63
2022-09-28T04:32:41.984Z,3.88
2022-09-28T04:37:45.957Z,4.22
2022-09-28T04:42:55.019Z,3.60
2022-09-28T04:48:00.488Z,3.80
2022-09-28T04:53:22.019Z,4.15
2022-09-28T04:58:26.205Z,4.40
2022-09-28T05:03:32.206Z,3.80
2022-09-28T05:09:05.348Z,3.88
2022-09-28T05:14:11.927Z,4.17
2022-09-28T05:19:18.391Z,5.75
2022-09-28T05:24:22.533Z,4.60
2022-09-28T05:29:32.019Z,5.30
2022-09-28T05:40:04.714Z,5.25
2022-09-28T05:45:10.401Z,5.35
2022-09-28T05:50:18.389Z,5.03
2022-09-28T05:55:24.675Z,5.05
2022-09-28T06:00:29.578Z,5.30
2022-09-28T06:05:36.279Z,5.70
2022-09-28T06:10:40.999Z,6.05
2022-09-28T06:15:46.465Z,6.10
2022-09-28T06:20:52.735Z,6.53
2022-09-28T06:26:07.536Z,6.85
2022-09-28T06:31:11.806Z,7.28
2022-09-28T06:36:25.816Z,7.50
2022-09-28T06:41:29.911Z,8.13
2022-09-28T06:46:38.295Z,7.07
2022-09-28T06:52:13.048Z,8.48
2022-09-28T06:57:35.630Z,6.63
2022-09-28T07:02:39.682Z,7.00
2022-09-28T07:07:44.957Z,7.20
2022-09-28T07:13:03.611Z,7.15
2022-09-28T07:18:18.783Z,6.00
2022-09-28T07:23:24.619Z,5.70
2022-09-28T07:28:46.827Z,5.53
2022-09-28T07:34:23.624Z,3.72
2022-09-28T07:40:00.484Z,3.67
2022-09-28T07:45:08.695Z,3.35
2022-09-28T07:50:12.827Z,3.57
2022-09-28T07:55:35.504Z,3.00
2022-09-28T08:01:04.258Z,3.10
2022-09-28T08:06:12.714Z,2.75
2022-09-28T08:11:19.452Z,2.10
2022-09-28T08:16:47.555Z,2.65
2022-09-28T08:22:09.898Z,2.13
2022-09-28T08:27:16.831Z,2.30
2022-09-28T08:32:21.860Z,2.33
2022-09-28T08:37:58.185Z,2.47
2022-09-28T08:43:54.342Z,3.08
2022-09-28T08:49:36.468Z,2.75
2022-09-28T08:55:12.600Z,2.42
2022-09-28T09:00:22.335Z,1.98
2022-09-28T09:05:45.017Z,1.60
2022-09-28T09:10:54.788Z,1.80
2022-09-28T09:16:19.932Z,1.92
2022-09-28T09:21:46.852Z,2.92
2022-09-28T09:27:01.721Z,1.90
2022-09-28T09:32:19.584Z,2.40
2022-09-28T09:37:48.537Z,1.85
2022-09-28T09:43:38.467Z,1.30
2022-09-28T09:49:02.900Z,1.67
2022-09-28T09:54:16.727Z,1.50
2022-09-28T09:59:25.679Z,1.60
2022-09-28T10:04:44.655Z,2.10
2022-09-28T10:10:01.570Z,1.75
2022-09-28T10:15:25.740Z,2.00
2022-09-28T10:20:46.110Z,1.95
2022-09-28T10:26:03.370Z,1.60
2022-09-28T10:31:35.414Z,1.70
2022-09-28T10:36:58.602Z,1.40
2022-09-28T10:42:08.301Z,2.13
2022-09-28T10:47:19.923Z,1.40
2022-09-28T10:52:41.793Z,2.10
2022-09-28T10:57:53.477Z,1.52
2022-09-28T11:02:59.360Z,2.20
2022-09-28T11:08:08.449Z,1.80
2022-09-28T11:13:21.654Z,1.90
2022-09-28T11:18:36.743Z,1.40
2022-09-28T11:23:58.029Z,1.52
2022-09-28T11:29:04.149Z,1.50
2022-09-28T11:34:36.207Z,1.60
2022-09-28T11:40:03.398Z,1.50
2022-09-28T11:45:24.626Z,1.50
2022-09-28T11:50:46.182Z,1.05
2022-09-28T11:55:59.315Z,1.63
2022-09-28T12:01:24.027Z,1.20
2022-09-28T12:12:03.832Z,1.80
2022-09-28T12:17:24.891Z,2.50
2022-09-28T12:22:34.316Z,1.60
2022-09-28T12:27:45.071Z,1.33
2022-09-28T12:32:53.486Z,1.23
2022-09-28T12:38:11.753Z,1.65
2022-09-28T12:43:42.343Z,1.70
2022-09-28T12:55:03.699Z,2.20
2022-09-28T13:00:13.047Z,1.60
2022-09-28T13:05:34.547Z,1.65
2022-09-28T13:10:43.095Z,1.98
2022-09-28T13:15:55.923Z,1.60
2022-09-28T13:21:07.975Z,1.80
2022-09-28T13:26:23.702Z,1.90
2022-09-28T13:31:33.958Z,1.70
2022-09-28T13:36:47.857Z,1.88
2022-09-28T13:41:54.682Z,1.50
2022-09-28T13:47:23.363Z,1.80
2022-09-28T13:52:41.567Z,1.83
2022-09-28T13:57:52.022Z,1.27
2022-09-28T14:03:04.733Z,1.60
2022-09-28T14:08:28.067Z,1.77
2022-09-28T14:14:07.313Z,1.60
2022-09-28T14:19:19.910Z,1.85
2022-09-28T14:24:46.121Z,1.92
2022-09-28T14:29:55.587Z,1.70
2022-09-28T14:35:04.640Z,1.63
2022-09-28T14:40:37.204Z,1.70
2022-09-28T14:45:43.115Z,1.52
2022-09-28T14:50:50.011Z,1.95
2022-09-28T14:55:58.893Z,1.77
2022-09-28T15:01:06.530Z,1.80
2022-09-28T15:06:16.258Z,1.90
2022-09-28T15:11:23.951Z,1.63
2022-09-28T15:16:32.244Z,1.83
2022-09-28T15:21:39.955Z,2.83
2022-09-28T15:26:49.405Z,1.85
2022-09-28T15:31:54.647Z,1.95
2022-09-28T15:37:00.362Z,2.90
2022-09-28T15:42:05.064Z,3.47
2022-09-28T15:47:13.991Z,2.72
2022-09-28T15:52:29.807Z,2.60
2022-09-28T15:57:38.072Z,2.72
2022-09-28T16:03:00.518Z,2.88
2022-09-28T16:08:07.059Z,2.72
2022-09-28T16:13:17.952Z,2.15
2022-09-28T16:18:23.714Z,2.50
2022-09-28T16:23:33.267Z,3.00
2022-09-28T16:28:51.960Z,2.78
2022-09-28T16:33:58.966Z,2.95
2022-09-28T16:39:04.247Z,3.22
2022-09-28T16:44:16.775Z,2.65
2022-09-28T16:49:20.888Z,2.10
2022-09-28T16:54:44.334Z,2.10
2022-09-28T16:59:48.479Z,2.40
2022-09-28T17:04:52.825Z,2.15
2022-09-28T17:09:57.959Z,2.50
2022-09-28T17:15:01.641Z,2.17
2022-09-28T17:20:21.507Z,2.40
2022-09-28T17:25:30.889Z,2.15
2022-09-28T17:30:34.858Z,1.88
2022-09-28T17:35:40.550Z,2.25
2022-09-28T17:40:48.160Z,2.30
2022-09-28T17:45:53.210Z,2.60
2022-09-28T17:50:57.282Z,2.63
2022-09-28T17:56:02.887Z,2.95
2022-09-28T18:01:07.069Z,2.40
2022-09-28T18:06:14.662Z,2.20
2022-09-28T18:11:20.175Z,2.17
2022-09-28T18:16:25.057Z,2.65
2022-09-28T18:21:32.388Z,2.10
2022-09-28T18:26:38.623Z,2.00
2022-09-28T18:31:44.829Z,2.17
2022-09-28T18:41:56.505Z,2.33
2022-09-28T18:47:02.438Z,2.70
2022-09-28T18:52:06.788Z,2.28
2022-09-28T18:57:15.341Z,2.15
2022-09-28T19:02:19.469Z,2.40
2022-09-28T19:07:23.595Z,2.80
2022-09-28T19:12:29.046Z,2.55
2022-09-28T19:17:36.486Z,2.83
2022-09-28T19:22:40.814Z,2.55
2022-09-28T19:27:47.955Z,2.70
2022-09-28T19:32:52.033Z,2.97
2022-09-28T19:37:56.258Z,2.40
2022-09-28T19:43:02.086Z,2.20
2022-09-28T19:48:06.193Z,2.30
2022-09-28T19:53:10.891Z,2.33
2022-09-28T19:58:17.232Z,2.30
2022-09-28T20:03:21.453Z,2.03
2022-09-28T20:08:26.343Z,2.58
2022-09-28T20:13:35.839Z,2.00
2022-09-28T20:18:44.306Z,1.90
2022-09-28T20:23:49.724Z,2.40
2022-09-28T20:28:55.878Z,1.88
2022-09-28T20:34:00.249Z,1.65
2022-09-28T20:39:05.219Z,1.90
2022-09-28T20:44:10.925Z,1.73
2022-09-28T20:49:15.034Z,1.80
2022-09-28T20:54:19.727Z,2.50
2022-09-28T20:59:27.869Z,2.30
2022-09-28T21:04:34.597Z,2.08
2022-09-28T21:09:38.803Z,2.22
2022-09-28T21:14:45.817Z,3.35
2022-09-28T21:19:49.874Z,3.20
2022-09-28T21:24:54.060Z,3.00
2022-09-28T21:29:59.579Z,3.40
2022-09-28T21:35:04.537Z,5.05
2022-09-28T21:40:11.006Z,4.70
2022-09-28T21:45:17.585Z,5.50
2022-09-28T21:50:23.614Z,3.33
2022-09-28T21:55:27.560Z,2.05
2022-09-28T22:00:32.946Z,3.08
2022-09-28T22:05:37.092Z,5.78
2022-09-28T22:10:41.046Z,7.97
2022-09-28T22:15:46.397Z,4.20
2022-09-28T22:20:50.366Z,4.57
2022-09-28T22:25:59.619Z,14.77
2022-09-28T22:31:05.679Z,1.70
2022-09-28T22:36:11.507Z,1.98
2022-09-28T22:41:17.029Z,2.50
2022-09-28T22:46:24.369Z,1.50
2022-09-28T22:51:30.514Z,6.93
2022-09-28T22:56:34.824Z,1.65
2022-09-28T23:01:40.585Z,1.50
2022-09-28T23:06:44.991Z,1.52
2022-09-28T23:11:48.942Z,1.40
2022-09-28T23:16:54.372Z,1.42
2022-09-28T23:21:59.379Z,1.50
2022-09-28T23:27:03.379Z,2.03
2022-09-28T23:32:08.888Z,1.10
2022-09-28T23:37:12.862Z,2.47
2022-09-28T23:42:17.207Z,1.38
2022-09-28T23:47:22.554Z,10.80
2022-09-28T23:52:26.524Z,5.75
2022-09-28T23:57:30.479Z,3.15
